Time;durP1;ratioP1;P1;durP2;ratioP2;P2;SDS_P1;SDS_P2;PMS_P1;PMS_P2;Temp;Humidity;BMP_temperature;BMP_pressure;BME280_temperature;BME280_humidity;BME280_pressure;Samples;Min_cycle;Max_cycle;Signal;HPM_P1;HPM_P2
2022/10/21 00:01:27;;;;;;;40.83;25.38;;;12.10;97.80;;;;;;5051433;28;20041;-75
2022/10/21 00:03:53;;;;;;;40.90;24.10;;;12.10;97.70;;;;;;5035316;28;20044;-74
2022/10/21 00:06:18;;;;;;;38.88;26.67;;;12.10;97.90;;;;;;5034873;28;20405;-74
2022/10/21 00:08:44;;;;;;;41.78;25.13;;;12.10;97.90;;;;;;5051693;28;20067;-75
2022/10/21 00:11:10;;;;;;;38.78;25.98;;;12.10;97.90;;;;;;5051279;28;20501;-75
2022/10/21 00:13:38;;;;;;;42.75;26.65;;;12.10;98.00;;;;;;5034814;28;20056;-75
2022/10/21 00:16:14;;;;;;;42.33;26.60;;;12.10;97.90;;;;;;5051499;28;20048;-75
2022/10/21 00:18:42;;;;;;;43.60;28.15;;;12.10;98.00;;;;;;5051372;28;20043;-75
2022/10/21 00:21:19;;;;;;;41.70;26.52;;;12.10;98.00;;;;;;5051444;28;20049;-74
2022/10/21 00:23:46;;;;;;;43.80;27.95;;;12.10;97.90;;;;;;5051579;28;20146;-75
2022/10/21 00:26:13;;;;;;;42.65;26.75;;;12.10;98.00;;;;;;5051293;28;20072;-74
2022/10/21 00:28:39;;;;;;;46.67;27.65;;;12.00;98.00;;;;;;5051231;28;20041;-75
2022/10/21 00:31:07;;;;;;;46.33;27.48;;;12.00;97.90;;;;;;5051205;28;20071;-74
2022/10/21 00:33:33;;;;;;;43.90;27.30;;;12.10;98.00;;;;;;5051176;28;20060;-75
2022/10/21 00:36:03;;;;;;;37.00;27.20;;;12.00;98.00;;;;;;5034777;28;20037;-74
2022/10/21 00:38:30;;;;;;;38.95;25.90;;;12.00;97.90;;;;;;5051188;28;20033;-75
2022/10/21 00:40:57;;;;;;;35.35;22.02;;;12.00;97.90;;;;;;5051078;28;20033;-75
2022/10/21 00:43:24;;;;;;;35.97;24.65;;;12.00;97.80;;;;;;5051098;28;20614;-75
2022/10/21 00:45:54;;;;;;;35.35;25.10;;;12.00;97.80;;;;;;5051114;28;20033;-74
2022/10/21 00:48:24;;;;;;;53.28;28.67;;;11.90;97.80;;;;;;5053628;28;20120;-74
2022/10/21 00:50:56;;;;;;;38.38;25.02;;;11.90;97.70;;;;;;5054883;28;20037;-75
2022/10/21 00:53:24;;;;;;;42.28;27.80;;;11.80;97.70;;;;;;5054674;28;20071;-74
2022/10/21 00:55:54;;;;;;;44.13;27.23;;;11.80;97.70;;;;;;5054793;28;20132;-74
2022/10/21 00:58:24;;;;;;;39.10;26.67;;;11.70;97.70;;;;;;5054720;28;20139;-74
2022/10/21 01:00:53;;;;;;;41.85;26.95;;;11.70;97.70;;;;;;5054854;28;20041;-75
2022/10/21 01:03:20;;;;;;;47.70;28.85;;;11.70;97.60;;;;;;5054655;28;20052;-75
2022/10/21 01:05:46;;;;;;;53.35;30.55;;;11.70;97.60;;;;;;5054537;28;20041;-75
2022/10/21 01:08:12;;;;;;;43.83;26.35;;;11.70;97.60;;;;;;5054580;28;20343;-75
2022/10/21 01:10:38;;;;;;;43.55;26.17;;;11.60;97.60;;;;;;5054507;28;20167;-74
2022/10/21 01:13:31;;;;;;;54.70;29.85;;;11.60;97.60;;;;;;5054392;28;20044;-74
2022/10/21 01:16:40;;;;;;;42.58;26.50;;;11.60;97.60;;;;;;5054354;28;20520;-75
2022/10/21 01:19:29;;;;;;;39.67;25.90;;;11.60;97.50;;;;;;4997249;28;20490;-74
2022/10/21 01:22:16;;;;;;;43.25;28.38;;;11.50;97.50;;;;;;4997044;28;20037;-75
2022/10/21 01:25:20;;;;;;;47.53;27.98;;;11.50;97.60;;;;;;5040053;28;20052;-74
2022/10/21 01:28:03;;;;;;;32.70;23.15;;;11.50;97.50;;;;;;5051065;28;20056;-75
2022/10/21 01:30:36;;;;;;;45.97;27.20;;;11.50;97.50;;;;;;5054089;28;20679;-74
2022/10/21 01:33:33;;;;;;;40.03;26.17;;;11.50;97.60;;;;;;5054386;28;20045;-75
2022/10/21 01:36:04;;;;;;;31.17;23.15;;;11.50;97.70;;;;;;5054177;28;20283;-74
2022/10/21 01:38:38;;;;;;;38.03;23.85;;;11.50;97.80;;;;;;5053967;28;20041;-75
2022/10/21 01:41:23;;;;;;;49.45;28.40;;;11.50;97.80;;;;;;5053871;28;20041;-74
2022/10/21 01:44:05;;;;;;;;;;;11.60;98.00;;;;;;5054532;28;20041;-74
2022/10/21 01:46:39;;;;;;;44.47;28.33;;;11.70;98.10;;;;;;5054075;28;19920;-75
2022/10/21 01:49:08;;;;;;;;;;;11.60;98.00;;;;;;5054523;28;20106;-75
2022/10/21 01:51:36;;;;;;;43.50;28.10;;;11.70;98.10;;;;;;5053650;28;19947;-75
2022/10/21 01:54:07;;;;;;;50.85;29.65;;;11.70;98.20;;;;;;5053464;28;20063;-74
2022/10/21 01:56:35;;;;;;;42.58;27.48;;;11.70;98.10;;;;;;5037240;28;20053;-74
2022/10/21 01:59:02;;;;;;;48.30;29.02;;;11.80;98.00;;;;;;5052980;28;20044;-74
2022/10/21 02:01:30;;;;;;;42.35;26.63;;;11.80;98.10;;;;;;5053455;28;20051;-75
2022/10/21 02:03:59;;;;;;;49.17;30.40;;;11.90;98.30;;;;;;5053441;28;20049;-74
2022/10/21 02:06:25;;;;;;;32.63;23.27;;;12.00;98.20;;;;;;5053415;28;20048;-75
2022/10/21 02:08:51;;;;;;;48.45;29.60;;;11.90;98.00;;;;;;5020663;28;20045;-74
2022/10/21 02:11:17;;;;;;;47.08;28.73;;;12.00;98.30;;;;;;5053290;28;20107;-74
2022/10/21 02:13:47;;;;;;;50.00;29.88;;;12.00;98.10;;;;;;5053280;28;20062;-74
2022/10/21 02:16:17;;;;;;;44.15;28.95;;;12.10;98.20;;;;;;5053224;28;20082;-75
2022/10/21 02:18:43;;;;;;;50.38;29.45;;;12.10;98.20;;;;;;5053205;28;20099;-73
2022/10/21 02:21:17;;;;;;;47.25;28.23;;;12.10;98.40;;;;;;5053126;28;20044;-75
2022/10/21 02:23:57;;;;;;;42.25;27.05;;;12.10;98.30;;;;;;5053426;28;20040;-75
2022/10/21 02:26:26;;;;;;;48.53;29.25;;;12.20;98.20;;;;;;5036724;28;20048;-75
2022/10/21 02:28:54;;;;;;;46.50;29.10;;;12.30;98.40;;;;;;5053242;28;20073;-74
2022/10/21 02:31:52;;;;;;;43.80;29.23;;;12.30;98.30;;;;;;5053138;28;20088;-74
2022/10/21 02:34:59;;;;;;;46.03;29.67;;;12.40;98.30;;;;;;5024837;28;20052;-75
2022/10/21 02:37:28;;;;;;;40.75;25.75;;;12.50;98.30;;;;;;5036476;28;20410;-75
2022/10/21 02:40:13;;;;;;;53.25;29.60;;;12.50;98.50;;;;;;5053080;28;20456;-76
2022/10/21 02:42:46;;;;;;;47.90;32.33;;;12.60;98.40;;;;;;5036222;28;20041;-74
2022/10/21 02:45:12;;;;;;;37.95;26.88;;;12.60;98.30;;;;;;5053080;28;20047;-77
2022/10/21 02:47:39;;;;;;;50.88;30.38;;;12.70;98.20;;;;;;5036200;28;20377;-76
2022/10/21 02:50:05;;;;;;;38.55;25.85;;;12.70;98.40;;;;;;5052672;28;20056;-75
2022/10/21 02:52:30;;;;;;;37.60;26.77;;;12.80;98.30;;;;;;5036033;28;20044;-77
2022/10/21 02:54:56;;;;;;;55.92;32.15;;;12.80;98.30;;;;;;5052329;28;20053;-75
2022/10/21 02:57:22;;;;;;;52.45;30.15;;;12.80;98.30;;;;;;5052372;28;20061;-76
2022/10/21 02:59:48;;;;;;;51.58;32.25;;;12.90;98.30;;;;;;5052665;28;20041;-76
2022/10/21 03:02:13;;;;;;;54.28;32.83;;;13.00;98.60;;;;;;5052342;28;20045;-76
2022/10/21 03:04:39;;;;;;;38.05;25.27;;;13.00;98.50;;;;;;5052361;28;20072;-76
2022/10/21 03:07:05;;;;;;;50.45;29.88;;;13.00;98.40;;;;;;5052535;28;20053;-74
2022/10/21 03:09:30;;;;;;;48.20;29.10;;;13.00;98.40;;;;;;5051671;28;20052;-75
2022/10/21 03:11:56;;;;;;;63.03;33.28;;;13.00;98.50;;;;;;5019140;28;20080;-76
2022/10/21 03:14:22;;;;;;;51.88;29.27;;;13.00;98.30;;;;;;5035506;28;20495;-76
2022/10/21 03:16:47;;;;;;;62.03;33.63;;;13.00;98.40;;;;;;5035706;28;20052;-76
2022/10/21 03:19:13;;;;;;;58.80;32.42;;;13.00;98.40;;;;;;5052066;28;20478;-75
2022/10/21 03:21:39;;;;;;;58.80;34.20;;;13.00;98.50;;;;;;5052221;28;20040;-75
2022/10/21 03:24:05;;;;;;;53.92;31.70;;;13.00;98.50;;;;;;5051982;28;20397;-76
2022/10/21 03:26:30;;;;;;;47.60;29.30;;;13.00;98.50;;;;;;5051937;28;20084;-76
2022/10/21 03:28:56;;;;;;;54.10;31.60;;;13.00;98.40;;;;;;5052173;28;20045;-75
2022/10/21 03:31:21;;;;;;;49.53;30.55;;;13.00;98.60;;;;;;5052090;28;20432;-76
2022/10/21 03:33:47;;;;;;;46.00;27.15;;;13.00;98.40;;;;;;5035316;28;20432;-76
2022/10/21 03:36:13;;;;;;;52.25;30.13;;;13.00;98.70;;;;;;5051794;28;20413;-75
2022/10/21 03:38:38;;;;;;;55.03;31.60;;;13.00;98.50;;;;;;5051899;28;20037;-76
2022/10/21 03:41:04;;;;;;;51.58;29.08;;;13.00;98.70;;;;;;5051694;28;20110;-75
2022/10/21 03:43:30;;;;;;;55.28;28.60;;;13.00;98.80;;;;;;5051782;28;20037;-75
2022/10/21 03:45:55;;;;;;;46.80;27.35;;;13.00;98.90;;;;;;5051718;28;20037;-76
2022/10/21 03:48:21;;;;;;;38.05;25.42;;;13.10;98.80;;;;;;5051671;28;20068;-76
2022/10/21 03:50:47;;;;;;;48.85;28.02;;;13.10;98.60;;;;;;5051531;28;20040;-75
2022/10/21 03:53:13;;;;;;;45.05;28.05;;;13.20;98.80;;;;;;5051432;28;20132;-75
2022/10/21 03:55:38;;;;;;;39.17;26.60;;;13.10;98.60;;;;;;5051544;28;20037;-76
2022/10/21 03:58:04;;;;;;;45.67;26.67;;;13.20;98.70;;;;;;5051403;28;20140;-75
2022/10/21 04:00:30;;;;;;;51.67;29.95;;;13.20;98.70;;;;;;5035121;28;20045;-76
2022/10/21 04:02:56;;;;;;;47.55;27.95;;;13.20;98.80;;;;;;5034856;28;20405;-76
2022/10/21 04:05:22;;;;;;;48.15;27.50;;;13.20;98.80;;;;;;5034890;28;20170;-76
2022/10/21 04:07:47;;;;;;;47.88;26.73;;;13.20;98.70;;;;;;5051420;28;20045;-75
2022/10/21 04:10:13;;;;;;;47.85;29.05;;;13.20;98.90;;;;;;5051578;28;20040;-75
2022/10/21 04:12:39;;;;;;;50.72;27.85;;;13.20;98.90;;;;;;5051332;28;20076;-76
2022/10/21 04:15:06;;;;;;;47.20;27.58;;;13.30;98.80;;;;;;5051388;28;20049;-75
2022/10/21 04:17:32;;;;;;;34.92;22.80;;;13.30;98.60;;;;;;5051220;28;20041;-76
2022/10/21 04:19:58;;;;;;;46.92;28.65;;;13.30;98.70;;;;;;5051377;28;20047;-75
2022/10/21 04:22:23;;;;;;;47.53;27.30;;;13.30;98.70;;;;;;5037366;28;20048;-75
2022/10/21 04:24:49;;;;;;;45.72;27.48;;;13.30;98.70;;;;;;5038741;28;20171;-76
2022/10/21 04:27:15;;;;;;;41.78;26.52;;;13.30;98.70;;;;;;5055196;28;20044;-74
2022/10/21 04:29:40;;;;;;;52.58;30.70;;;13.30;98.70;;;;;;5055508;28;20040;-76
2022/10/21 04:32:06;;;;;;;40.17;26.10;;;13.30;98.60;;;;;;5055345;28;20048;-75
2022/10/21 04:34:32;;;;;;;48.95;28.65;;;13.30;98.60;;;;;;5055204;28;20053;-76
2022/10/21 04:36:57;;;;;;;43.83;27.02;;;13.30;98.60;;;;;;5038443;28;20077;-76
2022/10/21 04:39:23;;;;;;;42.72;26.33;;;13.40;98.80;;;;;;5055016;28;20037;-75
2022/10/21 04:41:51;;;;;;;47.83;28.67;;;13.30;98.60;;;;;;5054868;28;20095;-76
2022/10/21 04:44:17;;;;;;;40.70;25.95;;;13.40;98.70;;;;;;5055246;28;20076;-75
2022/10/21 04:46:43;;;;;;;44.38;26.25;;;13.40;98.50;;;;;;5038261;28;20408;-75
2022/10/21 04:49:09;;;;;;;47.15;27.67;;;13.40;98.60;;;;;;5038286;28;20051;-76
2022/10/21 04:51:35;;;;;;;46.05;28.85;;;13.30;98.50;;;;;;5038164;28;20041;-76
2022/10/21 04:54:00;;;;;;;40.60;25.60;;;13.40;98.70;;;;;;5054607;28;20148;-76
2022/10/21 04:56:26;;;;;;;49.80;30.00;;;13.40;98.50;;;;;;5054630;28;20045;-76
2022/10/21 04:58:52;;;;;;;47.90;28.63;;;13.30;98.50;;;;;;5054679;28;20155;-76
2022/10/21 05:01:17;;;;;;;34.40;23.13;;;13.40;98.60;;;;;;5038004;28;20037;-75
2022/10/21 05:03:43;;;;;;;36.85;23.40;;;13.40;98.70;;;;;;5054562;28;20041;-76
2022/10/21 05:06:09;;;;;;;51.47;29.15;;;13.30;98.50;;;;;;5054860;28;20040;-76
2022/10/21 05:08:34;;;;;;;53.17;30.55;;;13.30;98.50;;;;;;5054492;28;20037;-76
2022/10/21 05:11:01;;;;;;;40.25;27.00;;;13.30;98.50;;;;;;5054651;28;20037;-76
2022/10/21 05:13:28;;;;;;;52.70;31.33;;;13.30;98.50;;;;;;5054412;28;20094;-76
2022/10/21 05:16:01;;;;;;;49.47;31.60;;;13.30;98.50;;;;;;5054358;28;20037;-76
2022/10/21 05:18:28;;;;;;;50.63;32.53;;;13.30;98.40;;;;;;5054358;28;20517;-75
2022/10/21 05:20:55;;;;;;;54.28;33.83;;;13.30;98.50;;;;;;5054242;28;20041;-75
2022/10/21 05:23:20;;;;;;;52.90;32.92;;;13.30;98.60;;;;;;5037602;28;20037;-76
2022/10/21 05:25:47;;;;;;;49.67;34.70;;;13.20;98.50;;;;;;5037563;28;20191;-76
2022/10/21 05:28:13;;;;;;;59.00;35.10;;;13.20;98.50;;;;;;5054414;28;20441;-76
2022/10/21 05:30:39;;;;;;;54.25;34.17;;;13.20;98.60;;;;;;5054034;28;20045;-75
2022/10/21 05:33:05;;;;;;;54.75;36.88;;;13.10;98.40;;;;;;5053276;28;20128;-76
2022/10/21 05:35:31;;;;;;;59.05;34.95;;;13.10;98.50;;;;;;5037691;28;20040;-74
2022/10/21 05:37:56;;;;;;;51.80;31.92;;;13.00;98.50;;;;;;5053823;28;20094;-75
2022/10/21 05:40:22;;;;;;;39.45;25.65;;;13.00;98.60;;;;;;5053870;28;20033;-76
2022/10/21 05:42:48;;;;;;;48.28;28.60;;;13.00;98.50;;;;;;5054153;28;20128;-76
2022/10/21 05:45:14;;;;;;;55.70;32.45;;;13.00;98.50;;;;;;5054045;28;20124;-74
2022/10/21 05:47:40;;;;;;;57.20;31.42;;;13.00;98.50;;;;;;5053785;28;20554;-75
2022/10/21 05:50:08;;;;;;;53.60;31.45;;;12.90;98.50;;;;;;5053741;28;20477;-77
2022/10/21 05:52:33;;;;;;;56.58;31.98;;;12.90;98.50;;;;;;5053636;28;20140;-74
2022/10/21 05:54:59;;;;;;;52.00;31.55;;;12.80;98.50;;;;;;5053396;28;20144;-75
2022/10/21 05:57:25;;;;;;;53.78;30.95;;;12.80;98.50;;;;;;5053641;28;20037;-75
2022/10/21 05:59:50;;;;;;;68.10;35.00;;;12.80;98.50;;;;;;5053831;28;20037;-75
2022/10/21 06:02:16;;;;;;;59.40;30.92;;;12.70;98.50;;;;;;5053409;28;20397;-75
2022/10/21 06:04:42;;;;;;;68.60;32.63;;;12.70;98.60;;;;;;5036836;28;20084;-75
2022/10/21 06:07:08;;;;;;;60.78;31.73;;;12.60;98.50;;;;;;5053403;28;20057;-77
2022/10/21 06:09:34;;;;;;;60.17;31.98;;;12.60;98.50;;;;;;5053227;28;20131;-74
2022/10/21 06:11:59;;;;;;;55.40;31.40;;;12.60;98.60;;;;;;5019985;28;20048;-76
2022/10/21 06:14:28;;;;;;;59.05;31.15;;;12.60;98.50;;;;;;5036798;28;20508;-75
2022/10/21 06:16:56;;;;;;;60.38;31.30;;;12.60;98.50;;;;;;5052820;28;20520;-74
2022/10/21 06:19:22;;;;;;;60.38;33.30;;;12.60;98.50;;;;;;5052742;28;20085;-74
2022/10/21 06:21:48;;;;;;;58.05;32.53;;;12.60;98.50;;;;;;5052933;28;20041;-76
2022/10/21 06:24:14;;;;;;;66.53;35.40;;;12.60;98.50;;;;;;5036721;28;20041;-74
2022/10/21 06:26:40;;;;;;;55.67;33.28;;;12.60;98.60;;;;;;5053345;28;20044;-75
2022/10/21 06:29:06;;;;;;;49.78;30.67;;;12.50;98.60;;;;;;5052983;28;20413;-76
2022/10/21 06:31:31;;;;;;;75.55;38.08;;;12.50;98.60;;;;;;5052814;28;20047;-74
2022/10/21 06:33:57;;;;;;;64.15;34.80;;;12.50;98.60;;;;;;5052887;28;20045;-74
2022/10/21 06:36:23;;;;;;;70.80;37.78;;;12.50;98.60;;;;;;5036437;28;20052;-76
2022/10/21 06:38:48;;;;;;;73.45;38.30;;;12.60;98.80;;;;;;5036236;28;20389;-76
2022/10/21 06:41:14;;;;;;;63.92;34.78;;;12.60;98.90;;;;;;5052686;28;20033;-75
2022/10/21 06:43:41;;;;;;;61.90;33.58;;;12.60;98.90;;;;;;5036602;28;20124;-76
2022/10/21 06:46:10;;;;;;;55.65;31.60;;;12.70;98.90;;;;;;5052629;28;20132;-75
2022/10/21 06:48:36;;;;;;;68.03;36.78;;;12.80;98.90;;;;;;5052749;28;20048;-75
2022/10/21 06:51:08;;;;;;;61.97;35.60;;;12.80;99.00;;;;;;5035800;28;20409;-75
2022/10/21 06:53:34;;;;;;;65.18;33.47;;;12.90;98.80;;;;;;5052813;28;20044;-74
2022/10/21 06:56:06;;;;;;;53.72;31.80;;;12.90;98.90;;;;;;5052352;28;20513;-75
2022/10/21 06:58:33;;;;;;;64.32;34.55;;;12.90;98.90;;;;;;5052368;28;20489;-76
2022/10/21 07:01:04;;;;;;;60.28;34.35;;;12.90;98.90;;;;;;5052298;28;20124;-75
2022/10/21 07:03:30;;;;;;;64.70;34.95;;;13.00;98.90;;;;;;5052309;28;20159;-74
2022/10/21 07:05:59;;;;;;;62.15;32.67;;;13.00;98.70;;;;;;5052281;28;20119;-74
2022/10/21 07:08:26;;;;;;;57.88;34.28;;;13.00;98.90;;;;;;5052250;28;20072;-75
2022/10/21 07:10:52;;;;;;;66.40;35.42;;;13.00;98.80;;;;;;5035774;28;20466;-75
2022/10/21 07:13:18;;;;;;;60.75;35.65;;;13.00;98.80;;;;;;5035847;28;20128;-75
2022/10/21 07:15:43;;;;;;;62.28;35.30;;;13.00;98.80;;;;;;5052407;28;20135;-76
2022/10/21 07:18:09;;;;;;;60.40;33.92;;;13.00;98.80;;;;;;5052010;28;20493;-76
2022/10/21 07:20:35;;;;;;;56.30;32.85;;;13.00;98.80;;;;;;5051969;28;20416;-77
2022/10/21 07:23:00;;;;;;;60.85;35.38;;;13.00;98.80;;;;;;5035501;28;20037;-76
2022/10/21 07:25:26;;;;;;;58.20;35.05;;;13.00;98.80;;;;;;5052219;28;20047;-76
2022/10/21 07:27:52;;;;;;;55.45;31.60;;;13.00;98.80;;;;;;5051897;28;20041;-78
2022/10/21 07:30:17;;;;;;;53.90;34.45;;;13.00;98.70;;;;;;5052118;28;20044;-75
2022/10/21 07:32:43;;;;;;;58.50;34.10;;;13.00;98.70;;;;;;5052052;28;20044;-77
2022/10/21 07:35:09;;;;;;;50.15;31.25;;;12.90;98.70;;;;;;5052081;28;20055;-76
2022/10/21 07:37:35;;;;;;;57.90;35.03;;;13.00;98.70;;;;;;5018690;28;20505;-76
2022/10/21 07:40:00;;;;;;;46.22;28.73;;;13.00;98.70;;;;;;5035209;28;20086;-76
2022/10/21 07:42:27;;;;;;;53.88;30.98;;;13.00;98.70;;;;;;5035093;28;20095;-76
2022/10/21 07:44:58;;;;;;;46.00;28.17;;;13.00;98.80;;;;;;5051617;28;20532;-76
2022/10/21 07:47:24;;;;;;;50.72;30.60;;;13.10;98.80;;;;;;5035280;28;20048;-76
2022/10/21 07:49:50;;;;;;;55.63;31.50;;;13.00;98.70;;;;;;5051671;28;20045;-76
2022/10/21 07:52:16;;;;;;;52.83;30.42;;;13.10;98.70;;;;;;5051515;28;20041;-78
2022/10/21 07:54:42;;;;;;;53.63;32.33;;;13.10;98.70;;;;;;5034963;28;20094;-77
2022/10/21 07:57:08;;;;;;;47.92;30.50;;;13.20;98.70;;;;;;5050933;28;20507;-76
2022/10/21 07:59:34;;;;;;;41.05;26.98;;;13.20;98.70;;;;;;5051550;28;20098;-76
2022/10/21 08:01:59;;;;;;;44.47;27.70;;;13.20;98.70;;;;;;5035016;28;20122;-75
2022/10/21 08:04:28;;;;;;;51.83;29.20;;;13.20;98.70;;;;;;5051761;28;20067;-75
2022/10/21 08:06:55;;;;;;;44.55;27.30;;;13.30;98.60;;;;;;5052642;28;20049;-75
2022/10/21 08:09:21;;;;;;;37.53;25.63;;;13.30;98.60;;;;;;5035376;28;20493;-75
2022/10/21 08:11:47;;;;;;;42.10;27.98;;;13.30;98.60;;;;;;5051548;28;20393;-75
2022/10/21 08:14:14;;;;;;;35.53;24.05;;;13.30;98.60;;;;;;5051328;28;20048;-76
2022/10/21 08:16:40;;;;;;;42.22;25.95;;;13.30;98.50;;;;;;5051311;28;20128;-75
2022/10/21 08:19:07;;;;;;;41.50;26.20;;;13.30;98.50;;;;;;5051379;28;20080;-74
2022/10/21 08:21:33;;;;;;;50.83;30.08;;;13.30;98.50;;;;;;5051248;28;20045;-75
2022/10/21 08:24:02;;;;;;;38.58;25.00;;;13.40;98.60;;;;;;5051558;28;20389;-74
2022/10/21 08:26:27;;;;;;;44.00;27.20;;;13.40;98.50;;;;;;5051526;28;20124;-75
2022/10/21 08:28:53;;;;;;;48.35;30.00;;;13.40;98.40;;;;;;5051160;28;20240;-77
2022/10/21 08:31:21;;;;;;;37.63;24.33;;;13.40;98.50;;;;;;5034870;28;20147;-75
2022/10/21 08:33:47;;;;;;;42.67;25.48;;;13.40;98.40;;;;;;5051480;28;20049;-75
2022/10/21 08:36:19;;;;;;;43.60;27.33;;;13.50;98.50;;;;;;5034558;28;20041;-76
2022/10/21 08:38:45;;;;;;;30.63;21.88;;;13.50;98.50;;;;;;5034757;28;20060;-76
2022/10/21 08:41:24;;;;;;;42.85;28.38;;;13.50;98.40;;;;;;5051023;28;20052;-75
2022/10/21 08:43:51;;;;;;;42.13;27.75;;;13.60;98.50;;;;;;5051140;28;20044;-75
2022/10/21 08:46:22;;;;;;;37.13;24.02;;;13.50;98.40;;;;;;5034487;28;20037;-75
2022/10/21 08:48:50;;;;;;;42.63;27.42;;;13.60;98.40;;;;;;5051105;28;20033;-77
2022/10/21 08:51:29;;;;;;;40.13;24.50;;;13.60;98.40;;;;;;5058352;28;20036;-76
2022/10/21 08:54:00;;;;;;;40.75;24.00;;;13.70;98.40;;;;;;5054223;28;20048;-76
2022/10/21 08:56:28;;;;;;;36.78;21.85;;;13.70;98.30;;;;;;5071217;28;20043;-74
2022/10/21 08:58:54;;;;;;;38.00;23.75;;;13.70;98.30;;;;;;5070975;28;20523;-74
2022/10/21 09:01:41;;;;;;;37.92;24.88;;;13.80;98.30;;;;;;5054188;28;20080;-76
2022/10/21 09:04:35;;;;;;;35.80;23.67;;;13.80;98.30;;;;;;5071051;28;20110;-75
2022/10/21 09:07:01;;;;;;;35.35;22.75;;;13.80;98.20;;;;;;5046385;28;20052;-74
2022/10/21 09:09:29;;;;;;;31.52;22.63;;;13.90;98.20;;;;;;5072867;28;20489;-74
2022/10/21 09:12:11;;;;;;;34.50;23.25;;;13.90;98.20;;;;;;5073997;28;20044;-77
2022/10/21 09:14:42;;;;;;;31.50;22.08;;;14.00;98.20;;;;;;5073545;28;20044;-74
2022/10/21 09:17:24;;;;;;;31.48;22.17;;;14.00;98.10;;;;;;5074323;28;20040;-76
2022/10/21 09:20:18;;;;;;;33.45;22.58;;;14.00;98.10;;;;;;5057749;28;20044;-76
2022/10/21 09:22:50;;;;;;;30.02;20.45;;;14.00;98.00;;;;;;5043878;28;20048;-75
2022/10/21 09:25:29;;;;;;;32.00;22.88;;;14.00;97.90;;;;;;5074244;28;20094;-74
2022/10/21 09:27:56;;;;;;;26.95;19.13;;;14.00;97.90;;;;;;5074206;28;20047;-76
2022/10/21 09:30:23;;;;;;;30.75;19.95;;;14.10;97.90;;;;;;5074299;28;20055;-75
2022/10/21 09:32:54;;;;;;;26.00;18.23;;;14.10;97.80;;;;;;5074346;28;20400;-75
2022/10/21 09:35:33;;;;;;;28.70;19.02;;;14.10;97.80;;;;;;5074348;28;20397;-76
2022/10/21 09:38:17;;;;;;;28.80;19.98;;;14.20;97.80;;;;;;5073895;28;20044;-75
2022/10/21 09:40:44;;;;;;;27.85;18.15;;;14.20;97.70;;;;;;5074186;28;20074;-74
2022/10/21 09:43:17;;;;;;;26.10;18.65;;;14.20;97.70;;;;;;5073944;28;20082;-75
2022/10/21 09:45:45;;;;;;;31.05;19.98;;;14.30;97.70;;;;;;5074128;28;20123;-75
2022/10/21 09:48:26;;;;;;;32.10;18.88;;;14.30;97.60;;;;;;5073791;28;20082;-74
2022/10/21 09:50:55;;;;;;;27.25;19.77;;;14.30;97.60;;;;;;5073686;28;20044;-75
2022/10/21 09:53:30;;;;;;;28.02;18.60;;;14.30;97.50;;;;;;5073759;28;20051;-75
2022/10/21 09:56:22;;;;;;;28.92;18.30;;;14.40;97.60;;;;;;5073413;28;20111;-75
2022/10/21 09:59:02;;;;;;;28.35;18.50;;;14.40;97.50;;;;;;5073649;28;20056;-72
2022/10/21 10:01:28;;;;;;;26.25;18.00;;;14.40;97.50;;;;;;5056806;28;20500;-74
2022/10/21 10:03:54;;;;;;;29.33;17.17;;;14.50;97.40;;;;;;5073505;28;20052;-75
2022/10/21 10:06:38;;;;;;;23.90;16.85;;;14.50;97.50;;;;;;5073924;28;20041;-74
2022/10/21 10:09:28;;;;;;;21.27;16.00;;;14.50;97.40;;;;;;5056779;28;20076;-74
2022/10/21 10:12:03;;;;;;;23.85;17.00;;;14.50;97.30;;;;;;5052890;28;20091;-75
2022/10/21 10:14:38;;;;;;;33.20;26.35;;;14.50;97.40;;;;;;5074641;28;20048;-74
2022/10/21 10:17:22;;;;;;;26.80;19.58;;;14.50;97.30;;;;;;5073262;28;20052;-75
2022/10/21 10:20:03;;;;;;;24.17;17.13;;;14.50;97.20;;;;;;5056436;28;20044;-74
2022/10/21 10:22:40;;;;;;;52.08;40.58;;;14.50;97.20;;;;;;5073174;28;20047;-75
2022/10/21 10:25:33;;;;;;;35.42;26.35;;;14.50;97.10;;;;;;5073134;28;20068;-76
2022/10/21 10:28:07;;;;;;;37.25;31.05;;;14.60;97.10;;;;;;5073309;28;20094;-76
2022/10/21 10:30:42;;;;;;;29.92;23.08;;;14.60;97.20;;;;;;5072958;28;20047;-74
2022/10/21 10:33:15;;;;;;;45.78;40.88;;;14.60;97.10;;;;;;5072962;28;20052;-74
2022/10/21 10:35:50;;;;;;;52.70;44.75;;;14.60;97.10;;;;;;5056294;28;20044;-76
2022/10/21 10:38:31;;;;;;;23.13;17.98;;;14.60;97.10;;;;;;5072943;28;20663;-75
2022/10/21 10:41:14;;;;;;;22.17;17.05;;;14.60;97.00;;;;;;5073176;28;20041;-75
2022/10/21 10:43:53;;;;;;;19.00;15.68;;;14.70;97.00;;;;;;5072785;28;20041;-74
2022/10/21 10:46:32;;;;;;;17.92;14.70;;;14.70;96.90;;;;;;5072684;28;20040;-76
2022/10/21 10:49:22;;;;;;;22.42;16.58;;;14.70;96.80;;;;;;5072626;28;20489;-74
2022/10/21 10:52:04;;;;;;;25.75;17.90;;;14.70;96.80;;;;;;5072530;28;20040;-74
2022/10/21 10:54:30;;;;;;;22.95;18.00;;;14.70;96.70;;;;;;5072656;28;20040;-74
2022/10/21 10:57:03;;;;;;;22.23;16.20;;;14.80;96.80;;;;;;5072639;28;20084;-75
2022/10/21 10:59:50;;;;;;;26.90;22.17;;;14.80;96.70;;;;;;5072481;28;20455;-75
2022/10/21 11:02:57;;;;;;;25.85;18.98;;;14.80;96.60;;;;;;5055708;28;20037;-75
2022/10/21 11:05:38;;;;;;;24.52;15.82;;;14.90;96.50;;;;;;5072176;28;20509;-74
2022/10/21 11:08:27;;;;;;;22.55;16.23;;;14.90;96.50;;;;;;5072299;28;20048;-75
2022/10/21 11:10:58;;;;;;;22.38;14.98;;;14.90;96.40;;;;;;5062980;28;20095;-75
2022/10/21 11:13:24;;;;;;;21.52;14.00;;;14.90;96.50;;;;;;5072469;28;20127;-75
2022/10/21 11:16:10;;;;;;;18.70;13.88;;;15.00;96.40;;;;;;5072136;28;20445;-74
2022/10/21 11:18:56;;;;;;;22.02;16.15;;;15.00;96.10;;;;;;5072276;28;20119;-75
2022/10/21 11:21:36;;;;;;;22.42;12.95;;;15.00;96.10;;;;;;5072557;28;20036;-75
2022/10/21 11:24:10;;;;;;;20.10;13.32;;;15.00;95.90;;;;;;5072599;28;20489;-74
2022/10/21 11:26:44;;;;;;;;;;;15.00;95.90;;;;;;5072456;28;20050;-76
2022/10/21 11:29:46;;;;;;;17.00;12.27;;;15.10;96.00;;;;;;5072109;28;20007;-75
2022/10/21 11:32:24;;;;;;;18.35;13.50;;;15.20;95.90;;;;;;5013993;28;20393;-75
2022/10/21 11:35:33;;;;;;;17.52;13.02;;;15.20;95.80;;;;;;5064705;28;20401;-75
2022/10/21 11:38:11;;;;;;;14.68;11.15;;;15.30;95.80;;;;;;5071869;28;20437;-75
2022/10/21 11:40:45;;;;;;;15.95;11.30;;;15.30;95.60;;;;;;5071675;28;20044;-76
2022/10/21 11:43:35;;;;;;;16.27;10.68;;;15.30;95.50;;;;;;5071961;28;20039;-76
2022/10/21 11:46:21;;;;;;;17.80;10.65;;;15.30;95.30;;;;;;5071749;28;20052;-75
2022/10/21 11:48:56;;;;;;;17.00;11.02;;;15.30;95.20;;;;;;5071709;28;20044;-75
2022/10/21 11:51:21;;;;;;;13.50;10.77;;;15.30;94.80;;;;;;5071702;28;20115;-74
2022/10/21 11:54:11;;;;;;;21.58;11.38;;;15.30;95.00;;;;;;5071628;28;20722;-74
2022/10/21 11:56:49;;;;;;;18.55;11.70;;;15.30;95.00;;;;;;5071712;28;20045;-74
2022/10/21 11:59:17;;;;;;;16.20;10.70;;;15.40;95.10;;;;;;5071816;28;20101;-75
2022/10/21 12:02:24;;;;;;;17.88;10.70;;;15.40;94.90;;;;;;5071411;28;20080;-74
2022/10/21 12:05:31;;;;;;;16.33;9.13;;;15.50;95.00;;;;;;5063198;28;20107;-75
2022/10/21 12:07:57;;;;;;;17.33;10.85;;;15.50;94.80;;;;;;5071232;28;20071;-75
2022/10/21 12:10:31;;;;;;;14.30;10.05;;;15.50;95.10;;;;;;5054713;28;20493;-75
2022/10/21 12:13:03;;;;;;;;;;;15.50;94.90;;;;;;5071953;28;20036;-74
2022/10/21 12:15:40;;;;;;;16.25;9.68;;;15.60;94.90;;;;;;5071562;28;19916;-75
2022/10/21 12:18:13;;;;;;;15.73;10.43;;;15.60;95.20;;;;;;5071377;28;20481;-76
2022/10/21 12:20:39;;;;;;;12.63;9.82;;;15.60;94.60;;;;;;5071592;28;20064;-75
2022/10/21 12:23:06;;;;;;;18.77;10.68;;;15.60;94.90;;;;;;5071554;28;20036;-75
2022/10/21 12:25:42;;;;;;;15.05;10.02;;;15.70;95.00;;;;;;5071282;28;20123;-75
2022/10/21 12:28:30;;;;;;;15.98;9.98;;;15.70;94.50;;;;;;5054747;28;20049;-74
2022/10/21 12:31:14;;;;;;;14.45;10.57;;;15.80;94.50;;;;;;5070995;28;20040;-74
2022/10/21 12:33:43;;;;;;;16.48;9.38;;;15.80;94.40;;;;;;5071539;28;20412;-76
2022/10/21 12:36:38;;;;;;;12.80;9.30;;;15.90;94.50;;;;;;5071160;28;20102;-76
2022/10/21 12:39:11;;;;;;;15.85;9.50;;;16.00;94.60;;;;;;5071333;28;20377;-75
2022/10/21 12:41:38;;;;;;;14.32;8.93;;;16.30;94.60;;;;;;5071427;28;20119;-74
2022/10/21 12:44:24;;;;;;;13.48;9.13;;;16.50;93.10;;;;;;5074912;28;20047;-75
2022/10/21 12:47:01;;;;;;;12.35;8.77;;;16.70;92.50;;;;;;5074962;28;20123;-75
2022/10/21 12:49:35;;;;;;;12.52;9.07;;;16.90;92.20;;;;;;5074835;28;20067;-75